sensor_id;sensor_type;location;lat;lon;timestamp;P1;durP1;ratioP1;P2;durP2;ratioP2
21215;SDS011;10765;50.954;5.322;2023-03-23T00:00:54;3.00;;;2.70;;
21215;SDS011;10765;50.954;5.322;2023-03-23T00:03:21;3.27;;;2.30;;
21215;SDS011;10765;50.954;5.322;2023-03-23T00:05:50;3.10;;;2.37;;
21215;SDS011;10765;50.954;5.322;2023-03-23T00:08:17;3.50;;;2.77;;
21215;SDS011;10765;50.954;5.322;2023-03-23T00:10:47;3.70;;;2.33;;
21215;SDS011;10765;50.954;5.322;2023-03-23T00:13:18;3.03;;;2.53;;
21215;SDS011;10765;50.954;5.322;2023-03-23T00:15:46;2.90;;;2.47;;
21215;SDS011;10765;50.954;5.322;2023-03-23T00:18:14;4.63;;;2.60;;
21215;SDS011;10765;50.954;5.322;2023-03-23T00:20:48;3.73;;;2.53;;
21215;SDS011;10765;50.954;5.322;2023-03-23T00:23:16;2.80;;;2.57;;
21215;SDS011;10765;50.954;5.322;2023-03-23T00:25:45;3.00;;;2.40;;
21215;SDS011;10765;50.954;5.322;2023-03-23T00:28:13;3.70;;;2.67;;
21215;SDS011;10765;50.954;5.322;2023-03-23T00:30:42;3.57;;;3.00;;
21215;SDS011;10765;50.954;5.322;2023-03-23T00:33:10;4.07;;;2.50;;
21215;SDS011;10765;50.954;5.322;2023-03-23T00:35:39;4.43;;;2.60;;
21215;SDS011;10765;50.954;5.322;2023-03-23T00:38:06;5.00;;;2.50;;
21215;SDS011;10765;50.954;5.322;2023-03-23T00:40:34;3.03;;;2.73;;
21215;SDS011;10765;50.954;5.322;2023-03-23T00:43:02;3.43;;;2.83;;
21215;SDS011;10765;50.954;5.322;2023-03-23T00:45:29;2.87;;;2.40;;
21215;SDS011;10765;50.954;5.322;2023-03-23T00:47:58;3.57;;;2.30;;
21215;SDS011;10765;50.954;5.322;2023-03-23T00:50:27;3.80;;;2.43;;
21215;SDS011;10765;50.954;5.322;2023-03-23T00:52:54;2.80;;;2.60;;
21215;SDS011;10765;50.954;5.322;2023-03-23T00:55:22;4.10;;;2.70;;
21215;SDS011;10765;50.954;5.322;2023-03-23T00:57:49;2.70;;;2.50;;
21215;SDS011;10765;50.954;5.322;2023-03-23T01:00:16;3.23;;;2.90;;
21215;SDS011;10765;50.954;5.322;2023-03-23T01:02:44;3.93;;;2.77;;
21215;SDS011;10765;50.954;5.322;2023-03-23T01:05:13;4.00;;;3.00;;
21215;SDS011;10765;50.954;5.322;2023-03-23T01:07:40;4.30;;;3.03;;
21215;SDS011;10765;50.954;5.322;2023-03-23T01:10:09;3.83;;;3.17;;
21215;SDS011;10765;50.954;5.322;2023-03-23T01:12:41;3.80;;;2.87;;
21215;SDS011;10765;50.954;5.322;2023-03-23T01:15:09;3.77;;;3.20;;
21215;SDS011;10765;50.954;5.322;2023-03-23T01:17:41;3.37;;;3.07;;
21215;SDS011;10765;50.954;5.322;2023-03-23T01:20:08;3.23;;;2.93;;
21215;SDS011;10765;50.954;5.322;2023-03-23T01:22:37;5.93;;;3.07;;
21215;SDS011;10765;50.954;5.322;2023-03-23T01:25:04;4.50;;;2.80;;
21215;SDS011;10765;50.954;5.322;2023-03-23T01:27:32;3.10;;;2.90;;
21215;SDS011;10765;50.954;5.322;2023-03-23T01:29:59;3.20;;;2.80;;
21215;SDS011;10765;50.954;5.322;2023-03-23T01:32:26;3.73;;;2.90;;
21215;SDS011;10765;50.954;5.322;2023-03-23T01:34:54;3.93;;;2.87;;
21215;SDS011;10765;50.954;5.322;2023-03-23T01:37:21;3.83;;;3.00;;
21215;SDS011;10765;50.954;5.322;2023-03-23T01:39:52;3.23;;;2.93;;
21215;SDS011;10765;50.954;5.322;2023-03-23T01:42:21;2.93;;;2.70;;
21215;SDS011;10765;50.954;5.322;2023-03-23T01:47:54;3.57;;;3.03;;
21215;SDS011;10765;50.954;5.322;2023-03-23T01:50:25;3.17;;;2.93;;
21215;SDS011;10765;50.954;5.322;2023-03-23T01:52:54;3.40;;;3.10;;
21215;SDS011;10765;50.954;5.322;2023-03-23T01:55:25;5.17;;;3.10;;
21215;SDS011;10765;50.954;5.322;2023-03-23T01:57:53;3.60;;;3.30;;
21215;SDS011;10765;50.954;5.322;2023-03-23T02:00:22;3.83;;;3.13;;
21215;SDS011;10765;50.954;5.322;2023-03-23T02:02:50;4.33;;;3.40;;
21215;SDS011;10765;50.954;5.322;2023-03-23T02:05:21;3.30;;;2.97;;
21215;SDS011;10765;50.954;5.322;2023-03-23T02:07:53;3.70;;;3.20;;
21215;SDS011;10765;50.954;5.322;2023-03-23T02:10:20;3.73;;;3.33;;
21215;SDS011;10765;50.954;5.322;2023-03-23T02:12:49;3.43;;;3.03;;
21215;SDS011;10765;50.954;5.322;2023-03-23T02:15:16;4.00;;;3.57;;
21215;SDS011;10765;50.954;5.322;2023-03-23T02:17:44;3.37;;;3.07;;
21215;SDS011;10765;50.954;5.322;2023-03-23T02:20:18;4.00;;;3.03;;
21215;SDS011;10765;50.954;5.322;2023-03-23T02:23:19;4.70;;;3.30;;
21215;SDS011;10765;50.954;5.322;2023-03-23T02:26:01;3.60;;;3.30;;
21215;SDS011;10765;50.954;5.322;2023-03-23T02:31:43;4.00;;;3.43;;
21215;SDS011;10765;50.954;5.322;2023-03-23T02:34:17;4.07;;;3.20;;
21215;SDS011;10765;50.954;5.322;2023-03-23T02:36:45;3.57;;;2.90;;
21215;SDS011;10765;50.954;5.322;2023-03-23T02:39:17;4.43;;;3.13;;
21215;SDS011;10765;50.954;5.322;2023-03-23T02:41:49;3.17;;;2.87;;
21215;SDS011;10765;50.954;5.322;2023-03-23T02:44:19;3.30;;;3.00;;
21215;SDS011;10765;50.954;5.322;2023-03-23T02:46:48;3.37;;;3.07;;
21215;SDS011;10765;50.954;5.322;2023-03-23T02:49:17;4.63;;;3.57;;
21215;SDS011;10765;50.954;5.322;2023-03-23T02:51:46;3.43;;;3.10;;
21215;SDS011;10765;50.954;5.322;2023-03-23T02:54:15;3.27;;;2.90;;
21215;SDS011;10765;50.954;5.322;2023-03-23T02:56:45;4.87;;;3.13;;
21215;SDS011;10765;50.954;5.322;2023-03-23T02:59:13;3.23;;;2.97;;
21215;SDS011;10765;50.954;5.322;2023-03-23T03:01:55;2.70;;;2.47;;
21215;SDS011;10765;50.954;5.322;2023-03-23T03:04:28;5.57;;;3.07;;
21215;SDS011;10765;50.954;5.322;2023-03-23T03:10:06;3.43;;;2.80;;
21215;SDS011;10765;50.954;5.322;2023-03-23T03:12:42;3.03;;;2.77;;
21215;SDS011;10765;50.954;5.322;2023-03-23T03:15:17;3.37;;;2.63;;
21215;SDS011;10765;50.954;5.322;2023-03-23T03:17:53;3.43;;;2.83;;
21215;SDS011;10765;50.954;5.322;2023-03-23T03:20:27;3.13;;;2.83;;
21215;SDS011;10765;50.954;5.322;2023-03-23T03:22:56;3.53;;;2.70;;
21215;SDS011;10765;50.954;5.322;2023-03-23T03:25:23;2.40;;;2.20;;
21215;SDS011;10765;50.954;5.322;2023-03-23T03:27:52;3.30;;;2.60;;
21215;SDS011;10765;50.954;5.322;2023-03-23T03:30:23;3.23;;;2.47;;
21215;SDS011;10765;50.954;5.322;2023-03-23T03:32:55;3.90;;;2.40;;
21215;SDS011;10765;50.954;5.322;2023-03-23T03:35:29;2.90;;;2.20;;
21215;SDS011;10765;50.954;5.322;2023-03-23T03:38:04;3.33;;;2.37;;
21215;SDS011;10765;50.954;5.322;2023-03-23T03:40:32;4.10;;;2.50;;
21215;SDS011;10765;50.954;5.322;2023-03-23T03:42:59;3.27;;;2.23;;
21215;SDS011;10765;50.954;5.322;2023-03-23T03:45:26;5.00;;;2.30;;
21215;SDS011;10765;50.954;5.322;2023-03-23T03:47:53;2.87;;;2.23;;
21215;SDS011;10765;50.954;5.322;2023-03-23T03:50:20;2.33;;;2.00;;
21215;SDS011;10765;50.954;5.322;2023-03-23T03:52:49;3.60;;;2.30;;
21215;SDS011;10765;50.954;5.322;2023-03-23T03:55:17;1.90;;;1.80;;
21215;SDS011;10765;50.954;5.322;2023-03-23T03:57:46;3.07;;;2.20;;
21215;SDS011;10765;50.954;5.322;2023-03-23T04:00:13;2.20;;;2.00;;
21215;SDS011;10765;50.954;5.322;2023-03-23T04:02:41;4.27;;;2.03;;
21215;SDS011;10765;50.954;5.322;2023-03-23T04:05:09;3.07;;;2.00;;
21215;SDS011;10765;50.954;5.322;2023-03-23T04:07:36;3.63;;;2.20;;
21215;SDS011;10765;50.954;5.322;2023-03-23T04:10:06;3.33;;;2.30;;
21215;SDS011;10765;50.954;5.322;2023-03-23T04:12:34;2.87;;;1.87;;
21215;SDS011;10765;50.954;5.322;2023-03-23T04:15:02;3.23;;;2.20;;
21215;SDS011;10765;50.954;5.322;2023-03-23T04:17:30;3.27;;;2.23;;
21215;SDS011;10765;50.954;5.322;2023-03-23T04:19:57;2.50;;;1.90;;
21215;SDS011;10765;50.954;5.322;2023-03-23T04:22:25;2.40;;;1.80;;
21215;SDS011;10765;50.954;5.322;2023-03-23T04:24:55;2.73;;;1.70;;
21215;SDS011;10765;50.954;5.322;2023-03-23T04:27:25;4.03;;;1.80;;
21215;SDS011;10765;50.954;5.322;2023-03-23T04:29:53;2.93;;;1.77;;
21215;SDS011;10765;50.954;5.322;2023-03-23T04:32:21;3.20;;;1.90;;
21215;SDS011;10765;50.954;5.322;2023-03-23T04:34:50;3.17;;;1.90;;
21215;SDS011;10765;50.954;5.322;2023-03-23T04:37:17;4.13;;;1.80;;
21215;SDS011;10765;50.954;5.322;2023-03-23T04:39:44;3.53;;;1.83;;
21215;SDS011;10765;50.954;5.322;2023-03-23T04:42:11;3.30;;;1.80;;
21215;SDS011;10765;50.954;5.322;2023-03-23T04:44:40;2.70;;;1.80;;
21215;SDS011;10765;50.954;5.322;2023-03-23T04:47:08;3.50;;;2.17;;
21215;SDS011;10765;50.954;5.322;2023-03-23T04:49:35;4.63;;;2.23;;
21215;SDS011;10765;50.954;5.322;2023-03-23T04:52:02;3.40;;;1.80;;
21215;SDS011;10765;50.954;5.322;2023-03-23T04:54:30;3.13;;;1.80;;
21215;SDS011;10765;50.954;5.322;2023-03-23T04:56:57;4.97;;;2.00;;
21215;SDS011;10765;50.954;5.322;2023-03-23T04:59:24;3.43;;;2.13;;
21215;SDS011;10765;50.954;5.322;2023-03-23T05:01:54;2.40;;;1.63;;
21215;SDS011;10765;50.954;5.322;2023-03-23T05:04:21;3.17;;;1.70;;
21215;SDS011;10765;50.954;5.322;2023-03-23T05:06:50;7.00;;;2.47;;
21215;SDS011;10765;50.954;5.322;2023-03-23T05:09:17;2.73;;;1.60;;
21215;SDS011;10765;50.954;5.322;2023-03-23T05:11:44;3.30;;;1.70;;
21215;SDS011;10765;50.954;5.322;2023-03-23T05:14:11;4.13;;;1.57;;
21215;SDS011;10765;50.954;5.322;2023-03-23T05:16:40;3.73;;;1.97;;
21215;SDS011;10765;50.954;5.322;2023-03-23T05:19:15;4.27;;;1.77;;
21215;SDS011;10765;50.954;5.322;2023-03-23T05:21:42;5.20;;;2.03;;
21215;SDS011;10765;50.954;5.322;2023-03-23T05:24:09;4.97;;;1.77;;
21215;SDS011;10765;50.954;5.322;2023-03-23T05:26:37;3.53;;;1.87;;
21215;SDS011;10765;50.954;5.322;2023-03-23T05:29:04;4.53;;;1.73;;
21215;SDS011;10765;50.954;5.322;2023-03-23T05:31:31;3.10;;;1.30;;
21215;SDS011;10765;50.954;5.322;2023-03-23T05:33:58;3.90;;;1.73;;
21215;SDS011;10765;50.954;5.322;2023-03-23T05:36:26;5.70;;;2.03;;
21215;SDS011;10765;50.954;5.322;2023-03-23T05:38:53;4.10;;;1.90;;
21215;SDS011;10765;50.954;5.322;2023-03-23T05:41:21;2.03;;;1.63;;
21215;SDS011;10765;50.954;5.322;2023-03-23T05:43:49;2.93;;;1.50;;
21215;SDS011;10765;50.954;5.322;2023-03-23T05:46:16;3.03;;;1.73;;
21215;SDS011;10765;50.954;5.322;2023-03-23T05:48:46;2.87;;;1.50;;
21215;SDS011;10765;50.954;5.322;2023-03-23T05:51:13;5.10;;;1.70;;
21215;SDS011;10765;50.954;5.322;2023-03-23T05:53:41;4.17;;;1.73;;
21215;SDS011;10765;50.954;5.322;2023-03-23T05:56:11;4.90;;;2.00;;
21215;SDS011;10765;50.954;5.322;2023-03-23T05:58:39;2.90;;;1.60;;
21215;SDS011;10765;50.954;5.322;2023-03-23T06:01:06;2.47;;;1.60;;
21215;SDS011;10765;50.954;5.322;2023-03-23T06:03:34;3.80;;;1.83;;
21215;SDS011;10765;50.954;5.322;2023-03-23T06:06:01;6.97;;;2.03;;
21215;SDS011;10765;50.954;5.322;2023-03-23T06:08:31;4.40;;;2.20;;
21215;SDS011;10765;50.954;5.322;2023-03-23T06:10:59;4.07;;;1.60;;
21215;SDS011;10765;50.954;5.322;2023-03-23T06:13:26;3.10;;;1.40;;
21215;SDS011;10765;50.954;5.322;2023-03-23T06:15:54;2.73;;;1.53;;
21215;SDS011;10765;50.954;5.322;2023-03-23T06:18:22;3.70;;;1.73;;
21215;SDS011;10765;50.954;5.322;2023-03-23T06:20:50;4.27;;;1.73;;
21215;SDS011;10765;50.954;5.322;2023-03-23T06:23:17;3.37;;;1.60;;
21215;SDS011;10765;50.954;5.322;2023-03-23T06:25:44;3.17;;;1.50;;
21215;SDS011;10765;50.954;5.322;2023-03-23T06:28:12;3.03;;;1.60;;
21215;SDS011;10765;50.954;5.322;2023-03-23T06:30:40;3.20;;;1.40;;
21215;SDS011;10765;50.954;5.322;2023-03-23T06:33:07;3.37;;;1.30;;
21215;SDS011;10765;50.954;5.322;2023-03-23T06:35:34;3.13;;;1.90;;
21215;SDS011;10765;50.954;5.322;2023-03-23T06:38:01;3.40;;;1.53;;
21215;SDS011;10765;50.954;5.322;2023-03-23T06:40:29;3.73;;;1.87;;
21215;SDS011;10765;50.954;5.322;2023-03-23T06:42:56;2.33;;;1.60;;
21215;SDS011;10765;50.954;5.322;2023-03-23T06:45:25;3.80;;;1.80;;
21215;SDS011;10765;50.954;5.322;2023-03-23T06:47:52;3.43;;;1.50;;
21215;SDS011;10765;50.954;5.322;2023-03-23T06:50:19;2.93;;;1.30;;
21215;SDS011;10765;50.954;5.322;2023-03-23T06:52:46;3.63;;;1.60;;
21215;SDS011;10765;50.954;5.322;2023-03-23T06:55:14;3.67;;;1.70;;
21215;SDS011;10765;50.954;5.322;2023-03-23T06:57:42;5.50;;;2.03;;
21215;SDS011;10765;50.954;5.322;2023-03-23T07:00:10;3.07;;;1.80;;
21215;SDS011;10765;50.954;5.322;2023-03-23T07:02:40;2.80;;;1.40;;
21215;SDS011;10765;50.954;5.322;2023-03-23T07:05:07;4.83;;;2.00;;
21215;SDS011;10765;50.954;5.322;2023-03-23T07:07:35;2.37;;;1.43;;
21215;SDS011;10765;50.954;5.322;2023-03-23T07:10:02;4.80;;;1.80;;
21215;SDS011;10765;50.954;5.322;2023-03-23T07:12:30;4.23;;;1.60;;
21215;SDS011;10765;50.954;5.322;2023-03-23T07:14:56;4.00;;;1.40;;
21215;SDS011;10765;50.954;5.322;2023-03-23T07:17:23;5.80;;;1.80;;
21215;SDS011;10765;50.954;5.322;2023-03-23T07:19:52;2.97;;;1.70;;
21215;SDS011;10765;50.954;5.322;2023-03-23T07:22:19;4.93;;;1.50;;
21215;SDS011;10765;50.954;5.322;2023-03-23T07:24:46;7.10;;;2.07;;
21215;SDS011;10765;50.954;5.322;2023-03-23T07:27:13;2.87;;;1.40;;
21215;SDS011;10765;50.954;5.322;2023-03-23T07:29:40;4.60;;;1.80;;
21215;SDS011;10765;50.954;5.322;2023-03-23T07:32:08;4.23;;;1.63;;
21215;SDS011;10765;50.954;5.322;2023-03-23T07:34:37;3.00;;;1.50;;
21215;SDS011;10765;50.954;5.322;2023-03-23T07:37:06;3.73;;;1.83;;
21215;SDS011;10765;50.954;5.322;2023-03-23T07:39:32;5.23;;;1.30;;
21215;SDS011;10765;50.954;5.322;2023-03-23T07:42:00;4.07;;;1.30;;
21215;SDS011;10765;50.954;5.322;2023-03-23T07:44:27;2.70;;;1.57;;
21215;SDS011;10765;50.954;5.322;2023-03-23T07:46:54;5.40;;;1.57;;
21215;SDS011;10765;50.954;5.322;2023-03-23T07:49:21;4.60;;;1.80;;
21215;SDS011;10765;50.954;5.322;2023-03-23T07:51:48;3.43;;;1.60;;
21215;SDS011;10765;50.954;5.322;2023-03-23T07:54:16;6.03;;;1.63;;
21215;SDS011;10765;50.954;5.322;2023-03-23T07:56:43;5.20;;;1.87;;
21215;SDS011;10765;50.954;5.322;2023-03-23T07:59:10;4.37;;;1.67;;
21215;SDS011;10765;50.954;5.322;2023-03-23T08:01:38;3.93;;;1.70;;
21215;SDS011;10765;50.954;5.322;2023-03-23T08:04:05;4.60;;;1.67;;
21215;SDS011;10765;50.954;5.322;2023-03-23T08:06:33;6.10;;;1.80;;
21215;SDS011;10765;50.954;5.322;2023-03-23T08:09:00;3.73;;;1.57;;
21215;SDS011;10765;50.954;5.322;2023-03-23T08:11:32;4.73;;;1.63;;
21215;SDS011;10765;50.954;5.322;2023-03-23T08:13:59;4.23;;;1.80;;
21215;SDS011;10765;50.954;5.322;2023-03-23T08:16:27;4.80;;;1.90;;
21215;SDS011;10765;50.954;5.322;2023-03-23T08:18:54;4.53;;;1.70;;
21215;SDS011;10765;50.954;5.322;2023-03-23T08:21:21;5.23;;;1.73;;
21215;SDS011;10765;50.954;5.322;2023-03-23T08:23:48;4.43;;;1.93;;
21215;SDS011;10765;50.954;5.322;2023-03-23T08:26:15;3.40;;;1.63;;
21215;SDS011;10765;50.954;5.322;2023-03-23T08:28:44;1.83;;;0.80;;
21215;SDS011;10765;50.954;5.322;2023-03-23T08:31:13;3.80;;;1.03;;
21215;SDS011;10765;50.954;5.322;2023-03-23T08:33:42;1.13;;;0.60;;
21215;SDS011;10765;50.954;5.322;2023-03-23T08:36:09;2.43;;;0.97;;
21215;SDS011;10765;50.954;5.322;2023-03-23T08:38:36;2.20;;;1.00;;
21215;SDS011;10765;50.954;5.322;2023-03-23T08:41:03;2.87;;;1.00;;
21215;SDS011;10765;50.954;5.322;2023-03-23T08:43:32;3.47;;;0.80;;
21215;SDS011;10765;50.954;5.322;2023-03-23T08:46:01;2.50;;;1.10;;
21215;SDS011;10765;50.954;5.322;2023-03-23T08:48:34;2.77;;;0.90;;
21215;SDS011;10765;50.954;5.322;2023-03-23T08:51:01;2.37;;;0.93;;
21215;SDS011;10765;50.954;5.322;2023-03-23T08:53:28;2.63;;;1.03;;
21215;SDS011;10765;50.954;5.322;2023-03-23T08:55:56;3.47;;;1.07;;
21215;SDS011;10765;50.954;5.322;2023-03-23T08:58:28;2.60;;;1.00;;
21215;SDS011;10765;50.954;5.322;2023-03-23T09:00:55;2.97;;;1.00;;
21215;SDS011;10765;50.954;5.322;2023-03-23T09:03:23;2.60;;;1.50;;
21215;SDS011;10765;50.954;5.322;2023-03-23T09:05:50;3.57;;;2.10;;
21215;SDS011;10765;50.954;5.322;2023-03-23T09:08:18;2.97;;;1.60;;
21215;SDS011;10765;50.954;5.322;2023-03-23T09:10:45;2.83;;;1.60;;
21215;SDS011;10765;50.954;5.322;2023-03-23T09:13:14;2.30;;;1.23;;
21215;SDS011;10765;50.954;5.322;2023-03-23T09:15:41;3.10;;;1.17;;
21215;SDS011;10765;50.954;5.322;2023-03-23T09:18:08;2.67;;;1.13;;
21215;SDS011;10765;50.954;5.322;2023-03-23T09:20:37;3.40;;;1.50;;
21215;SDS011;10765;50.954;5.322;2023-03-23T09:23:04;2.73;;;1.33;;
21215;SDS011;10765;50.954;5.322;2023-03-23T09:25:31;2.23;;;1.50;;
21215;SDS011;10765;50.954;5.322;2023-03-23T09:27:58;4.10;;;1.97;;
21215;SDS011;10765;50.954;5.322;2023-03-23T09:30:27;2.00;;;1.70;;
21215;SDS011;10765;50.954;5.322;2023-03-23T09:32:56;6.20;;;2.03;;
21215;SDS011;10765;50.954;5.322;2023-03-23T09:35:26;2.60;;;1.67;;
21215;SDS011;10765;50.954;5.322;2023-03-23T09:37:54;3.40;;;1.70;;
21215;SDS011;10765;50.954;5.322;2023-03-23T09:40:22;2.70;;;1.73;;
21215;SDS011;10765;50.954;5.322;2023-03-23T09:45:50;3.70;;;2.13;;
21215;SDS011;10765;50.954;5.322;2023-03-23T09:48:31;4.50;;;2.20;;
21215;SDS011;10765;50.954;5.322;2023-03-23T09:51:07;2.70;;;2.20;;
21215;SDS011;10765;50.954;5.322;2023-03-23T09:53:42;4.23;;;2.40;;
21215;SDS011;10765;50.954;5.322;2023-03-23T09:56:13;4.17;;;2.57;;
21215;SDS011;10765;50.954;5.322;2023-03-23T09:58:45;3.47;;;2.53;;
21215;SDS011;10765;50.954;5.322;2023-03-23T10:01:17;4.63;;;2.90;;
21215;SDS011;10765;50.954;5.322;2023-03-23T10:03:48;3.87;;;2.50;;
21215;SDS011;10765;50.954;5.322;2023-03-23T10:06:17;2.90;;;2.33;;
21215;SDS011;10765;50.954;5.322;2023-03-23T10:08:48;3.33;;;2.40;;
21215;SDS011;10765;50.954;5.322;2023-03-23T10:11:21;3.30;;;1.90;;
21215;SDS011;10765;50.954;5.322;2023-03-23T10:13:58;3.20;;;1.40;;
21215;SDS011;10765;50.954;5.322;2023-03-23T10:16:38;2.77;;;1.30;;
21215;SDS011;10765;50.954;5.322;2023-03-23T10:19:10;1.67;;;1.27;;
21215;SDS011;10765;50.954;5.322;2023-03-23T10:21:40;1.90;;;1.03;;
21215;SDS011;10765;50.954;5.322;2023-03-23T10:24:14;3.87;;;1.17;;
21215;SDS011;10765;50.954;5.322;2023-03-23T10:26:45;2.80;;;1.30;;
21215;SDS011;10765;50.954;5.322;2023-03-23T10:29:21;3.20;;;1.10;;
21215;SDS011;10765;50.954;5.322;2023-03-23T10:31:52;2.03;;;1.10;;
21215;SDS011;10765;50.954;5.322;2023-03-23T10:34:28;4.20;;;1.40;;
21215;SDS011;10765;50.954;5.322;2023-03-23T10:37:02;2.63;;;1.50;;
21215;SDS011;10765;50.954;5.322;2023-03-23T10:39:40;4.83;;;1.60;;
21215;SDS011;10765;50.954;5.322;2023-03-23T10:42:12;2.83;;;1.37;;
21215;SDS011;10765;50.954;5.322;2023-03-23T10:44:47;2.03;;;1.40;;
21215;SDS011;10765;50.954;5.322;2023-03-23T10:47:14;3.33;;;1.60;;
21215;SDS011;10765;50.954;5.322;2023-03-23T10:49:44;3.07;;;1.87;;
21215;SDS011;10765;50.954;5.322;2023-03-23T10:52:18;2.77;;;1.77;;
21215;SDS011;10765;50.954;5.322;2023-03-23T10:54:56;2.63;;;1.80;;
21215;SDS011;10765;50.954;5.322;2023-03-23T10:57:28;2.10;;;1.90;;
21215;SDS011;10765;50.954;5.322;2023-03-23T11:00:00;3.07;;;1.77;;
21215;SDS011;10765;50.954;5.322;2023-03-23T11:02:32;3.37;;;1.70;;
21215;SDS011;10765;50.954;5.322;2023-03-23T11:05:05;2.43;;;1.90;;
21215;SDS011;10765;50.954;5.322;2023-03-23T11:07:40;3.20;;;1.37;;
21215;SDS011;10765;50.954;5.322;2023-03-23T11:10:15;1.60;;;1.50;;
21215;SDS011;10765;50.954;5.322;2023-03-23T11:12:46;3.57;;;1.83;;
21215;SDS011;10765;50.954;5.322;2023-03-23T11:15:25;3.50;;;1.50;;
21215;SDS011;10765;50.954;5.322;2023-03-23T11:17:55;2.43;;;1.40;;
21215;SDS011;10765;50.954;5.322;2023-03-23T11:20:26;2.57;;;1.50;;
21215;SDS011;10765;50.954;5.322;2023-03-23T11:22:54;2.13;;;1.20;;
21215;SDS011;10765;50.954;5.322;2023-03-23T11:25:23;2.80;;;1.23;;
21215;SDS011;10765;50.954;5.322;2023-03-23T11:27:51;3.73;;;1.40;;
21215;SDS011;10765;50.954;5.322;2023-03-23T11:30:21;3.87;;;1.40;;
21215;SDS011;10765;50.954;5.322;2023-03-23T11:32:52;6.00;;;1.80;;
21215;SDS011;10765;50.954;5.322;2023-03-23T11:35:20;3.83;;;1.57;;
21215;SDS011;10765;50.954;5.322;2023-03-23T11:37:49;3.13;;;1.60;;
21215;SDS011;10765;50.954;5.322;2023-03-23T11:40:20;3.03;;;1.40;;
21215;SDS011;10765;50.954;5.322;2023-03-23T11:42:57;4.27;;;1.30;;
21215;SDS011;10765;50.954;5.322;2023-03-23T11:45:34;1.77;;;1.20;;
21215;SDS011;10765;50.954;5.322;2023-03-23T11:48:13;3.20;;;1.40;;
21215;SDS011;10765;50.954;5.322;2023-03-23T11:50:47;3.20;;;1.30;;
21215;SDS011;10765;50.954;5.322;2023-03-23T11:53:20;2.73;;;1.50;;
21215;SDS011;10765;50.954;5.322;2023-03-23T11:58:41;4.77;;;1.90;;
21215;SDS011;10765;50.954;5.322;2023-03-23T12:01:12;3.27;;;1.83;;
21215;SDS011;10765;50.954;5.322;2023-03-23T12:04:02;4.43;;;1.80;;
21215;SDS011;10765;50.954;5.322;2023-03-23T12:06:43;4.50;;;1.93;;
21215;SDS011;10765;50.954;5.322;2023-03-23T12:09:21;2.93;;;1.70;;
21215;SDS011;10765;50.954;5.322;2023-03-23T12:12:03;3.43;;;1.93;;
21215;SDS011;10765;50.954;5.322;2023-03-23T12:14:42;2.90;;;1.80;;
21215;SDS011;10765;50.954;5.322;2023-03-23T12:17:16;3.40;;;2.03;;
21215;SDS011;10765;50.954;5.322;2023-03-23T12:19:51;3.30;;;1.87;;
21215;SDS011;10765;50.954;5.322;2023-03-23T12:22:38;3.90;;;2.30;;
21215;SDS011;10765;50.954;5.322;2023-03-23T12:25:17;3.40;;;2.33;;
21215;SDS011;10765;50.954;5.322;2023-03-23T12:28:14;2.57;;;1.73;;
21215;SDS011;10765;50.954;5.322;2023-03-23T12:30:51;2.60;;;1.87;;
21215;SDS011;10765;50.954;5.322;2023-03-23T12:33:25;4.20;;;2.13;;
21215;SDS011;10765;50.954;5.322;2023-03-23T12:36:03;3.43;;;2.27;;
21215;SDS011;10765;50.954;5.322;2023-03-23T12:38:45;3.67;;;2.30;;
21215;SDS011;10765;50.954;5.322;2023-03-23T12:41:32;2.97;;;2.13;;
21215;SDS011;10765;50.954;5.322;2023-03-23T12:44:08;5.00;;;2.47;;
21215;SDS011;10765;50.954;5.322;2023-03-23T12:49:37;3.37;;;2.13;;
21215;SDS011;10765;50.954;5.322;2023-03-23T12:52:10;4.77;;;2.33;;
21215;SDS011;10765;50.954;5.322;2023-03-23T12:54:47;2.63;;;1.70;;
21215;SDS011;10765;50.954;5.322;2023-03-23T12:57:20;3.73;;;1.80;;
21215;SDS011;10765;50.954;5.322;2023-03-23T12:59:57;2.67;;;1.40;;
21215;SDS011;10765;50.954;5.322;2023-03-23T13:02:32;3.27;;;1.50;;
21215;SDS011;10765;50.954;5.322;2023-03-23T13:05:05;2.93;;;1.53;;
21215;SDS011;10765;50.954;5.322;2023-03-23T13:07:41;3.33;;;1.60;;
21215;SDS011;10765;50.954;5.322;2023-03-23T13:10:14;4.53;;;1.57;;
21215;SDS011;10765;50.954;5.322;2023-03-23T13:12:46;4.20;;;1.80;;
21215;SDS011;10765;50.954;5.322;2023-03-23T13:15:18;3.17;;;1.80;;
21215;SDS011;10765;50.954;5.322;2023-03-23T13:17:51;2.63;;;1.80;;
21215;SDS011;10765;50.954;5.322;2023-03-23T13:20:35;5.63;;;2.33;;
21215;SDS011;10765;50.954;5.322;2023-03-23T13:23:09;6.20;;;2.00;;
21215;SDS011;10765;50.954;5.322;2023-03-23T13:25:45;6.17;;;2.10;;
21215;SDS011;10765;50.954;5.322;2023-03-23T13:28:16;5.97;;;2.40;;
21215;SDS011;10765;50.954;5.322;2023-03-23T13:30:54;3.63;;;2.17;;
21215;SDS011;10765;50.954;5.322;2023-03-23T13:33:22;4.67;;;2.33;;
21215;SDS011;10765;50.954;5.322;2023-03-23T13:35:51;6.90;;;2.67;;
21215;SDS011;10765;50.954;5.322;2023-03-23T13:38:19;4.27;;;2.40;;
21215;SDS011;10765;50.954;5.322;2023-03-23T13:40:48;8.30;;;3.23;;
21215;SDS011;10765;50.954;5.322;2023-03-23T13:43:24;8.10;;;2.67;;
21215;SDS011;10765;50.954;5.322;2023-03-23T13:46:06;6.30;;;2.63;;
21215;SDS011;10765;50.954;5.322;2023-03-23T13:48:42;6.07;;;2.60;;
21215;SDS011;10765;50.954;5.322;2023-03-23T13:51:25;7.17;;;2.23;;
21215;SDS011;10765;50.954;5.322;2023-03-23T13:54:07;4.63;;;2.10;;
21215;SDS011;10765;50.954;5.322;2023-03-23T13:56:47;6.93;;;2.83;;
21215;SDS011;10765;50.954;5.322;2023-03-23T13:59:28;6.40;;;2.60;;
21215;SDS011;10765;50.954;5.322;2023-03-23T14:05:07;3.93;;;2.60;;
21215;SDS011;10765;50.954;5.322;2023-03-23T14:07:56;5.70;;;2.63;;
21215;SDS011;10765;50.954;5.322;2023-03-23T14:10:25;6.77;;;2.60;;
21215;SDS011;10765;50.954;5.322;2023-03-23T14:12:59;5.33;;;2.70;;
21215;SDS011;10765;50.954;5.322;2023-03-23T14:15:28;4.73;;;2.53;;
21215;SDS011;10765;50.954;5.322;2023-03-23T14:17:56;4.83;;;2.60;;
21215;SDS011;10765;50.954;5.322;2023-03-23T14:20:29;6.37;;;2.70;;
21215;SDS011;10765;50.954;5.322;2023-03-23T14:23:00;5.70;;;2.60;;
21215;SDS011;10765;50.954;5.322;2023-03-23T14:25:28;5.03;;;2.60;;
21215;SDS011;10765;50.954;5.322;2023-03-23T14:27:57;3.07;;;2.60;;
21215;SDS011;10765;50.954;5.322;2023-03-23T14:30:25;4.80;;;2.83;;
21215;SDS011;10765;50.954;5.322;2023-03-23T14:32:54;5.13;;;2.67;;
21215;SDS011;10765;50.954;5.322;2023-03-23T14:35:31;6.20;;;2.37;;
21215;SDS011;10765;50.954;5.322;2023-03-23T14:38:01;5.27;;;2.60;;
21215;SDS011;10765;50.954;5.322;2023-03-23T14:40:28;5.27;;;2.40;;
21215;SDS011;10765;50.954;5.322;2023-03-23T14:42:56;5.87;;;2.40;;
21215;SDS011;10765;50.954;5.322;2023-03-23T14:45:25;5.27;;;2.00;;
21215;SDS011;10765;50.954;5.322;2023-03-23T14:47:54;5.43;;;2.37;;
21215;SDS011;10765;50.954;5.322;2023-03-23T14:50:24;4.70;;;2.23;;
21215;SDS011;10765;50.954;5.322;2023-03-23T14:52:56;3.17;;;2.03;;
21215;SDS011;10765;50.954;5.322;2023-03-23T14:55:26;5.43;;;2.53;;
21215;SDS011;10765;50.954;5.322;2023-03-23T14:57:56;5.10;;;2.53;;
21215;SDS011;10765;50.954;5.322;2023-03-23T15:00:33;4.47;;;2.17;;
21215;SDS011;10765;50.954;5.322;2023-03-23T15:03:03;5.53;;;2.57;;
21215;SDS011;10765;50.954;5.322;2023-03-23T15:05:34;3.97;;;2.30;;
21215;SDS011;10765;50.954;5.322;2023-03-23T15:08:05;5.13;;;2.70;;
21215;SDS011;10765;50.954;5.322;2023-03-23T15:10:38;6.97;;;2.20;;
21215;SDS011;10765;50.954;5.322;2023-03-23T15:13:05;5.70;;;2.93;;
21215;SDS011;10765;50.954;5.322;2023-03-23T15:15:35;5.73;;;2.50;;
21215;SDS011;10765;50.954;5.322;2023-03-23T15:18:02;4.43;;;2.30;;
21215;SDS011;10765;50.954;5.322;2023-03-23T15:20:31;5.60;;;2.80;;
21215;SDS011;10765;50.954;5.322;2023-03-23T15:23:14;6.70;;;2.50;;
21215;SDS011;10765;50.954;5.322;2023-03-23T15:25:48;5.23;;;2.53;;
21215;SDS011;10765;50.954;5.322;2023-03-23T15:28:18;4.07;;;2.17;;